EW4557 Weather Reports


Display with metric or nautical units.
time (UTC)temp
F
wind
direction
speed
MPH
gust
MPH
rain 1hr
in
rain 24hr
in
rain mn
in
humidity
%
barometer
mb
20240519042136 62 0.0 0.0 0.00 0.00 0.00 64 1014.2
20240519041016 63 0.0 0.0 0.00 0.00 0.00 63 1014.3
20240519040056 64 0.0 0.0 0.00 0.00 0.00 61 1014.3
20240519035016 64 0.0 0.0 0.00 0.00 0.00 60 1014.2
20240519034136 65 0.0 1.0 0.00 0.00 0.00 60 1014.2
20240519032056 67 0.0 1.0 0.00 0.00 0.00 58 1014.1
20240519031136 68 0 0.0 1.0 0.00 0.00 0.00 57 1014.0
20240519030015 69 0 1.0 3.0 0.00 0.00 0.00 58 1014.0
20240519025016 70 0.0 0.0 0.00 0.00 0.00 53 1014.1
20240519024015 72 0.0 0.0 0.00 0.00 0.00 52 1013.9
20240519023055 73 0.0 0.0 0.00 0.00 0.00 50 1013.9
20240519022016 74 0.0 0.0 0.00 0.00 0.00 47 1013.8
20240519021055 75 0.0 0.0 0.00 0.00 0.00 44 1013.9
20240519020015 77 0.0 0.0 0.00 0.00 0.00 45 1013.9
20240519015136 79 0.0 0.0 0.00 0.00 0.00 40 1013.8
20240519014015 80 0.0 0.0 0.00 0.00 0.00 36 1013.6
20240519013015 81 0.0 0.0 0.00 0.00 0.00 34 1013.6
20240519012055 83 0.0 0.0 0.00 0.00 0.00 28 1013.3
20240519011015 84 0.0 0.0 0.00 0.00 0.00 23 1013.2
20240519010135 84 0.0 0.0 0.00 0.00 0.00 23 1013.3
20240519005015 85 0 0.0 2.0 0.00 0.00 0.00 23 1013.1
20240519004015 86 0 0.0 3.0 0.00 0.00 0.00 20 1013.3
20240519001015 89 9 2.0 6.0 0.00 0.00 0.00 17 1013.3
20240519000055 88 1 1.0 8.0 0.00 0.00 0.00 17 1013.1
20240518235015 89 2 3.0 8.0 0.00 0.00 0.00 17 1013.4
20240518234015 89 1 3.0 8.0 0.00 0.00 0.00 17 1013.4
20240518233135 90 15 2.0 9.0 0.00 0.00 0.00 17 1013.2
20240518231015 90 358 2.0 5.0 0.00 0.00 0.00 15 1012.7
20240518225015 91 1 2.0 6.0 0.00 0.00 0.00 16 1013.4
20240518224015 91 3 2.0 5.0 0.00 0.00 0.00 16 1013.2
20240518221015 89 2 2.0 8.0 0.00 0.00 0.00 16 1012.9
20240518220055 89 4 4.0 8.0 0.00 0.00 0.00 14 1013.0
20240518215015 90 0 3.0 10.0 0.00 0.00 0.00 15 1013.3
20240518213130 90 0 3.0 11.0 0.00 0.00 0.00 15 1013.5
20240518212015 90 0 2.0 6.0 0.00 0.00 0.00 15 1013.5
20240518211015 90 0 2.0 6.0 0.00 0.00 0.00 15 1013.9
20240518210055 90 0 5.0 9.0 0.00 0.00 0.00 16 1014.0
20240518205055 89 360 6.0 13.0 0.00 0.00 0.00 16 1014.0
20240518203015 90 0 3.0 8.0 0.00 0.00 0.00 16 1014.1
20240518202015 90 0 2.0 6.0 0.00 0.00 0.00 17 1014.3
20240518201017 89 7 2.0 6.0 0.00 0.00 0.00 18 1014.3
20240518200057 89 360 3.0 9.0 0.00 0.00 0.00 18 1014.4
20240518194137 88 0 4.0 9.0 0.00 0.00 0.00 18 1014.6
20240518193016 88 1 4.0 9.0 0.00 0.00 0.00 19 1014.6
20240518192137 87 0 3.0 8.0 0.00 0.00 0.00 19 1014.4
20240518191016 87 0 3.0 9.0 0.00 0.00 0.00 18 1014.8
20240518190017 87 0 2.0 8.0 0.00 0.00 0.00 17 1015.0
20240518185016 88 0 3.0 8.0 0.00 0.00 0.00 21 1015.5
20240518184056 88 0 3.0 9.0 0.00 0.00 0.00 20 1015.6
20240518183137 88 2 2.0 9.0 0.00 0.00 0.00 20 1015.7
20240518182136 88 8 2.0 5.0 0.00 0.00 0.00 22 1016.2
20240518181016 88 3 2.0 5.0 0.00 0.00 0.00 23 1016.2
20240518180016 87 2 4.0 10.0 0.00 0.00 0.00 21 1016.2
20240518175056 86 0 3.0 8.0 0.00 0.00 0.00 19 1016.1
20240518174056 86 0 3.0 8.0 0.00 0.00 0.00 19 1015.9
20240518173056 85 0 2.0 4.0 0.00 0.00 0.00 23 1016.1
20240518172016 85 359 3.0 8.0 0.00 0.00 0.00 22 1016.1
20240518171016 84 0 1.0 5.0 0.00 0.00 0.00 26 1016.1
20240518170016 83 0 2.0 9.0 0.00 0.00 0.00 26 1015.9
20240518165056 83 359 4.0 8.0 0.00 0.00 0.00 27 1016.0
20240518164016 82 0 4.0 8.0 0.00 0.00 0.00 28 1015.8
20240518163056 82 360 4.0 11.0 0.00 0.00 0.00 29 1015.9
20240518162016 82 0 4.0 10.0 0.00 0.00 0.00 29 1016.0
20240518161056 81 0 5.0 11.0 0.00 0.00 0.00 29 1015.8
20240518160136 81 0 4.0 9.0 0.00 0.00 0.00 29 1015.9
20240518155136 81 0 4.0 8.0 0.00 0.00 0.00 30 1015.9
20240518154016 80 0 3.0 9.0 0.00 0.00 0.00 30 1015.8
20240518152136 77 0 3.0 10.0 0.00 0.00 0.00 32 1015.9
20240518151016 76 0 4.0 9.0 0.00 0.00 0.00 32 1015.9
20240518150136 77 0 4.0 10.0 0.00 0.00 0.00 33 1016.4
20240518145016 76 0 3.0 9.0 0.00 0.00 0.00 34 1016.3
20240518144016 75 0 3.0 9.0 0.00 0.00 0.00 35 1016.4
20240518143056 74 0 4.0 10.0 0.00 0.00 0.00 34 1016.4
20240518142016 73 0 4.0 10.0 0.00 0.00 0.00 35 1016.6
20240518141056 73 0 3.0 11.0 0.00 0.00 0.00 36 1016.7
20240518140056 72 0 3.0 9.0 0.00 0.00 0.00 37 1016.7
20240518135056 71 0 4.0 9.0 0.00 0.00 0.00 37 1016.8
20240518134056 69 0 3.0 8.0 0.00 0.00 0.00 39 1016.6
20240518133016 68 0 4.0 9.0 0.00 0.00 0.00 41 1016.6
20240518132016 66 0 1.0 6.0 0.00 0.00 0.00 46 1016.6
20240518131016 65 0 3.0 5.0 0.00 0.00 0.00 48 1016.4
20240518130016 65 0 4.0 8.0 0.00 0.00 0.00 46 1016.1
20240518125016 63 0 3.0 6.0 0.00 0.00 0.00 47 1015.7
20240518123016 61 0 2.0 6.0 0.00 0.00 0.00 49 1015.5
20240518122016 61 0 2.0 5.0 0.00 0.00 0.00 51 1015.1
20240518121056 60 0 2.0 5.0 0.00 0.00 0.00 52 1015.2
20240518120016 59 0 1.0 3.0 0.00 0.00 0.00 53 1014.8
20240518115055 59 0 2.0 4.0 0.00 0.00 0.00 56 1014.7
20240518114136 59 0 1.0 5.0 0.00 0.00 0.00 57 1014.5
20240518113015 57 0 2.0 6.0 0.00 0.00 0.00 61 1014.1
20240518112015 54 0 2.0 4.0 0.00 0.00 0.00 68 1013.6
20240518111055 51 0 1.0 3.0 0.00 0.00 0.00 79 1012.9
20240518110136 52 0.0 0.0 0.00 0.00 0.00 78 1013.1
20240518105055 53 0.0 0.0 0.00 0.00 0.00 78 1013.2
20240518104135 54 0 1.0 5.0 0.00 0.00 0.00 74 1013.4
20240518102015 52 7 0.0 4.0 0.00 0.00 0.00 82 1012.9
20240518101015 52 0 0.0 2.0 0.00 0.00 0.00 83 1012.7
20240518100015 51 0 0.0 3.0 0.00 0.00 0.00 85 1012.5
20240518095015 51 0.0 2.0 0.00 0.00 0.00 86 1012.4
20240518094015 51 0 0.0 2.0 0.00 0.00 0.00 87 1012.1
20240518093015 50 0.0 1.0 0.00 0.00 0.00 87 1011.8
20240518091055 50 0.0 0.0 0.00 0.00 0.00 88 1011.6
20240518090015 50 0.0 0.0 0.00 0.00 0.00 87 1011.5
20240518085015 51 0 0.0 2.0 0.00 0.00 0.00 87 1011.3
20240518084015 51 0.0 1.0 0.00 0.00 0.00 86 1011.2
20240518083015 51 0.0 0.0 0.00 0.00 0.00 87 1011.0
20240518082015 51 0 0.0 2.0 0.00 0.00 0.00 86 1011.0
20240518080135 51 0.0 0.0 0.00 0.00 0.00 86 1010.6
20240518075015 51 0.0 1.0 0.00 0.00 0.00 86 1010.6
20240518073135 52 0.0 1.0 0.00 0.00 0.00 85 1010.6
20240518071135 53 0.0 1.0 0.00 0.00 0.00 83 1010.5
20240518070135 53 0 0.0 1.0 0.00 0.00 0.00 82 1010.6
20240518065015 54 0 0.0 2.0 0.00 0.00 0.00 82 1010.8
20240518062015 55 0 0.0 2.0 0.00 0.00 0.00 79 1010.7
20240518061015 55 3 0.0 3.0 0.00 0.00 0.00 78 1010.7
20240518060055 56 0 0.0 2.0 0.00 0.00 0.00 77 1010.8
20240518055016 56 0 0.0 2.0 0.00 0.00 0.00 77 1010.7
20240518054016 55 0 1.0 4.0 0.00 0.00 0.00 78 1010.5
20240518053016 56 0.0 1.0 0.00 0.00 0.00 79 1010.6
20240518052016 56 0 0.0 2.0 0.00 0.00 0.00 78 1010.9
20240518051016 56 0 0.0 3.0 0.00 0.00 0.00 79 1010.6
20240518050056 56 0.0 0.0 0.00 0.00 0.00 79 1010.6
20240518045136 56 0 0.0 2.0 0.00 0.00 0.00 79 1010.6
20240518044016 57 0.0 2.0 0.00 0.00 0.00 77 1010.5
20240518043056 57 0 0.0 2.0 0.00 0.00 0.00 76 1010.3